createdAt,value
2022-09-04T00:03:23.305Z,101625.32
2022-09-04T00:08:59.891Z,101618.48
2022-09-04T00:14:30.118Z,101625.66
2022-09-04T00:20:12.940Z,101625.93
2022-09-04T00:25:58.185Z,101620.39
2022-09-04T00:31:43.884Z,101621.91
2022-09-04T00:37:13.027Z,101618.56
2022-09-04T00:42:49.541Z,101624.97
2022-09-04T00:48:38.056Z,101622.67
2022-09-04T00:54:31.042Z,101617.16
2022-09-04T01:00:10.249Z,101625.92
2022-09-04T01:05:50.213Z,101640.88
2022-09-04T01:11:29.538Z,101631.09
2022-09-04T01:17:28.006Z,101634.44
2022-09-04T01:23:00.890Z,101642.64
2022-09-04T01:28:46.133Z,101629.20
2022-09-04T01:34:30.435Z,101629.81
2022-09-04T01:39:57.947Z,101619.87
2022-09-04T01:45:36.030Z,101619.63
2022-09-04T01:51:01.697Z,101619.50
2022-09-04T01:56:43.959Z,101612.66
2022-09-04T02:02:14.721Z,101620.03
2022-09-04T02:08:20.285Z,101615.97
2022-09-04T02:14:08.209Z,101615.88
2022-09-04T02:19:44.223Z,101618.91
2022-09-04T02:25:29.344Z,101615.89
2022-09-04T02:36:47.715Z,101615.64
2022-09-04T02:42:25.187Z,101617.04
2022-09-04T02:48:11.099Z,101614.88
2022-09-04T02:54:16.152Z,101614.48
2022-09-04T03:00:11.824Z,101616.81
2022-09-04T03:05:43.362Z,101617.91
2022-09-04T03:11:19.446Z,101619.73
2022-09-04T03:22:51.685Z,101619.31
2022-09-04T03:28:15.785Z,101619.47
2022-09-04T03:33:45.647Z,101611.75
2022-09-04T03:39:31.062Z,101612.61
2022-09-04T03:44:58.206Z,101618.84
2022-09-04T03:50:53.120Z,101620.84
2022-09-04T03:56:38.019Z,101619.43
2022-09-04T04:02:42.438Z,101628.69
2022-09-04T04:08:26.344Z,101634.51
2022-09-04T04:14:21.915Z,101637.33
2022-09-04T04:20:11.259Z,101646.41
2022-09-04T04:26:13.208Z,101649.27
2022-09-04T04:32:13.874Z,101665.94
2022-09-04T04:37:44.290Z,101671.25
2022-09-04T04:43:17.527Z,101679.84
2022-09-04T04:49:13.722Z,101680.21
2022-09-04T04:55:03.653Z,101672.45
2022-09-04T05:00:42.042Z,101682.45
2022-09-04T05:06:29.912Z,101686.27
2022-09-04T05:12:03.237Z,101700.89
2022-09-04T05:17:33.199Z,101700.38
2022-09-04T05:23:28.725Z,101707.50
2022-09-04T05:29:30.470Z,101706.52
2022-09-04T05:35:12.932Z,101717.45
2022-09-04T05:41:11.837Z,101725.66
2022-09-04T05:47:04.789Z,101726.59
2022-09-04T05:52:53.103Z,101732.11
2022-09-04T05:58:41.358Z,101737.45
2022-09-04T06:04:35.758Z,101735.85
2022-09-04T06:10:24.615Z,101744.58
2022-09-04T06:15:58.327Z,101746.24
2022-09-04T06:21:49.242Z,101757.77
2022-09-04T06:27:26.266Z,101757.78
2022-09-04T06:33:08.343Z,101754.59
2022-09-04T06:39:09.904Z,101765.63
2022-09-04T06:44:42.751Z,101755.28
2022-09-04T06:50:33.888Z,101759.27
2022-09-04T06:56:27.005Z,101764.52
2022-09-04T07:01:56.780Z,101759.63
2022-09-04T07:07:32.335Z,101763.34
2022-09-04T07:13:31.920Z,101763.67
2022-09-04T07:19:27.883Z,101763.64
2022-09-04T07:25:23.886Z,101772.48
2022-09-04T07:30:56.828Z,101779.95
2022-09-04T07:36:33.217Z,101790.06
2022-09-04T07:48:36.380Z,101801.63
2022-09-04T07:54:27.062Z,101798.35
2022-09-04T08:00:11.140Z,101805.02
2022-09-04T08:05:48.750Z,101803.23
2022-09-04T08:11:28.060Z,101805.13
2022-09-04T08:17:01.083Z,101817.09
2022-09-04T08:22:28.456Z,101826.55
2022-09-04T08:28:11.023Z,101817.80
2022-09-04T08:34:15.863Z,101819.36
2022-09-04T08:39:50.996Z,101823.25
2022-09-04T08:45:27.837Z,101830.66
2022-09-04T08:51:00.765Z,101838.88
2022-09-04T08:56:55.511Z,101833.35
2022-09-04T09:02:58.644Z,101836.27
2022-09-04T09:08:44.461Z,101832.95
2022-09-04T09:14:21.084Z,101833.25
2022-09-04T09:20:14.832Z,101841.73
2022-09-04T09:25:48.994Z,101837.37
2022-09-04T09:31:35.900Z,101842.45
2022-09-04T09:37:19.443Z,101846.95
2022-09-04T09:42:55.198Z,101841.84
2022-09-04T09:48:59.746Z,101845.62
2022-09-04T09:54:47.927Z,101850.08
2022-09-04T10:00:27.879Z,101847.55
2022-09-04T10:06:12.041Z,101850.47
2022-09-04T10:12:07.361Z,101846.68
2022-09-04T10:17:58.732Z,101842.06
2022-09-04T10:23:55.912Z,101828.14
2022-09-04T10:29:51.415Z,101830.40
2022-09-04T10:35:58.589Z,101832.97
2022-09-04T10:41:32.119Z,101828.52
2022-09-04T10:47:35.171Z,101824.69
2022-09-04T10:53:47.036Z,101827.69
2022-09-04T10:59:58.979Z,101815.85
2022-09-04T11:06:00.292Z,101817.05
2022-09-04T11:11:54.729Z,101820.94
2022-09-04T11:17:57.454Z,101810.17
2022-09-04T11:23:47.281Z,101809.70
2022-09-04T11:29:18.399Z,101816.73
2022-09-04T11:35:24.464Z,101814.20
2022-09-04T11:41:16.492Z,101823.66
2022-09-04T11:47:04.585Z,101808.58
2022-09-04T11:53:09.350Z,101817.01
2022-09-04T11:58:55.807Z,101808.64
2022-09-04T12:04:26.524Z,101809.61
2022-09-04T12:10:45.135Z,101798.87
2022-09-04T12:16:39.952Z,101797.52
2022-09-04T12:22:24.147Z,101794.96
2022-09-04T12:28:15.548Z,101796.14
2022-09-04T12:33:48.952Z,101791.73
2022-09-04T12:39:49.615Z,101804.52
2022-09-04T12:45:37.312Z,101789.94
2022-09-04T12:51:23.926Z,101802.63
2022-09-04T12:57:09.734Z,101804.84
2022-09-04T13:02:52.139Z,101800.65
2022-09-04T13:08:38.886Z,101805.12
2022-09-04T13:14:41.133Z,101805.88
2022-09-04T13:20:46.863Z,101797.94
2022-09-04T13:26:54.955Z,101810.77
2022-09-04T13:32:47.874Z,101803.80
2022-09-04T13:38:39.222Z,101801.33
2022-09-04T13:50:29.803Z,101791.93
2022-09-04T13:56:10.271Z,101801.92
2022-09-04T14:01:36.379Z,101803.98
2022-09-04T14:07:03.298Z,101805.83
2022-09-04T14:12:46.656Z,101809.16
2022-09-04T14:18:20.896Z,101799.67
2022-09-04T14:24:06.154Z,101795.09
2022-09-04T14:29:44.714Z,101800.19
2022-09-04T14:35:35.615Z,101793.44
2022-09-04T14:41:21.325Z,101803.20
2022-09-04T14:47:09.843Z,101800.05
2022-09-04T14:53:01.865Z,101803.20
2022-09-04T14:58:48.942Z,101813.45
2022-09-04T15:04:21.344Z,101810.24
2022-09-04T15:10:00.166Z,101803.48
2022-09-04T15:15:46.996Z,101804.50
2022-09-04T15:21:21.437Z,101819.22
2022-09-04T15:26:57.123Z,101816.38
2022-09-04T15:38:21.587Z,101816.78
2022-09-04T15:43:57.695Z,101820.56
2022-09-04T15:49:49.303Z,101813.30
2022-09-04T15:55:23.079Z,101821.80
2022-09-04T16:00:49.985Z,101826.47
2022-09-04T16:06:23.899Z,101822.52
2022-09-04T16:12:04.797Z,101824.08
2022-09-04T16:17:40.267Z,101837.20
2022-09-04T16:23:21.687Z,101830.88
2022-09-04T16:28:55.386Z,101829.66
2022-09-04T16:34:22.503Z,101839.28
2022-09-04T16:39:56.277Z,101844.42
2022-09-04T16:45:39.058Z,101843.31
2022-09-04T16:51:39.319Z,101842.93
2022-09-04T16:57:12.383Z,101845.09
2022-09-04T17:02:52.142Z,101856.84
2022-09-04T17:08:30.891Z,101858.25
2022-09-04T17:14:35.162Z,101861.03
2022-09-04T17:20:14.252Z,101876.12
2022-09-04T17:29:09.210Z,101873.96
2022-09-04T17:31:36.491Z,101871.12
2022-09-04T17:40:40.274Z,101879.74
2022-09-04T17:43:15.843Z,101881.08
2022-09-04T17:48:38.594Z,101894.98
2022-09-04T17:54:06.133Z,101915.72
2022-09-04T17:59:36.503Z,101919.84
2022-09-04T18:05:34.234Z,101924.28
2022-09-04T18:11:06.786Z,101934.17
2022-09-04T18:16:50.383Z,101960.17
2022-09-04T18:22:33.324Z,101955.48
2022-09-04T18:28:20.260Z,101960.73
2022-09-04T18:37:21.332Z,101978.03
2022-09-04T18:39:45.513Z,101976.04
2022-09-04T18:50:22.008Z,101983.95
2022-09-04T18:51:21.377Z,101981.55
2022-09-04T18:57:06.746Z,101983.76
2022-09-04T19:02:43.037Z,101996.44
2022-09-04T19:08:14.582Z,102002.25
2022-09-04T19:13:39.734Z,102003.92
2022-09-04T19:19:29.225Z,102021.42
2022-09-04T19:25:06.324Z,102021.11
2022-09-04T19:30:39.385Z,102020.37
2022-09-04T19:36:08.224Z,102027.50
2022-09-04T19:46:03.738Z,102021.81
2022-09-04T19:47:37.725Z,102032.19
2022-09-04T19:53:32.364Z,102028.62
2022-09-04T19:58:33.056Z,102034.69
2022-09-04T20:04:02.305Z,102037.70
2022-09-04T20:09:33.075Z,102047.99
2022-09-04T20:15:01.155Z,102051.45
2022-09-04T20:20:33.640Z,102058.02
2022-09-04T20:26:15.300Z,102058.98
2022-09-04T20:31:49.580Z,102060.01
2022-09-04T20:37:36.492Z,102073.34
2022-09-04T20:43:36.593Z,102068.77
2022-09-04T20:52:53.681Z,102083.77
2022-09-04T20:55:11.516Z,102083.12
2022-09-04T21:03:08.103Z,102085.55
2022-09-04T21:06:22.897Z,102089.53
2022-09-04T21:11:55.985Z,102093.37
2022-09-04T21:17:35.811Z,102103.12
2022-09-04T21:23:06.177Z,102102.81
2022-09-04T21:28:50.359Z,102113.33
2022-09-04T21:34:26.266Z,102113.12
2022-09-04T21:40:33.619Z,102116.12
2022-09-04T21:46:05.923Z,102117.66
2022-09-04T21:51:46.564Z,102118.14
2022-09-04T22:02:31.969Z,102125.83
2022-09-04T22:03:18.079Z,102123.53
2022-09-04T22:13:30.445Z,102129.59
2022-09-04T22:14:54.468Z,102134.57
2022-09-04T22:20:55.375Z,102137.83
2022-09-04T22:26:43.331Z,102140.17
2022-09-04T22:32:31.639Z,102135.91
2022-09-04T22:38:15.086Z,102147.23
2022-09-04T22:43:47.267Z,102146.74
2022-09-04T22:49:26.431Z,102146.41
2022-09-04T22:55:29.583Z,102149.22
2022-09-04T23:00:36.549Z,102150.89
2022-09-04T23:06:54.380Z,102154.44
2022-09-04T23:14:01.501Z,102156.59
2022-09-04T23:21:12.212Z,102155.28
2022-09-04T23:26:41.908Z,102162.30
2022-09-04T23:29:51.639Z,102162.81
2022-09-04T23:35:52.808Z,102164.27
2022-09-04T23:42:00.275Z,102162.53
2022-09-04T23:48:21.437Z,102165.63
2022-09-04T23:54:25.019Z,102129.03
